sensor_id;sensor_type;location;lat;lon;timestamp;P1;durP1;ratioP1;P2;durP2;ratioP2
70008;SDS011;59542;37.950;-122.338;2022-10-13T00:00:25;11.82;;;5.78;;
70008;SDS011;59542;37.950;-122.338;2022-10-13T00:02:51;10.27;;;5.47;;
70008;SDS011;59542;37.950;-122.338;2022-10-13T00:05:19;11.35;;;5.82;;
70008;SDS011;59542;37.950;-122.338;2022-10-13T00:07:45;13.15;;;6.43;;
70008;SDS011;59542;37.950;-122.338;2022-10-13T00:10:11;11.93;;;5.47;;
70008;SDS011;59542;37.950;-122.338;2022-10-13T00:12:37;11.85;;;5.20;;
70008;SDS011;59542;37.950;-122.338;2022-10-13T00:15:05;8.77;;;5.20;;
70008;SDS011;59542;37.950;-122.338;2022-10-13T00:17:32;10.00;;;5.85;;
70008;SDS011;59542;37.950;-122.338;2022-10-13T00:20:01;10.88;;;5.18;;
70008;SDS011;59542;37.950;-122.338;2022-10-13T00:22:28;8.85;;;5.10;;
70008;SDS011;59542;37.950;-122.338;2022-10-13T00:24:55;9.85;;;5.45;;
70008;SDS011;59542;37.950;-122.338;2022-10-13T00:27:21;10.45;;;5.32;;
70008;SDS011;59542;37.950;-122.338;2022-10-13T00:29:47;8.27;;;5.55;;
70008;SDS011;59542;37.950;-122.338;2022-10-13T00:32:13;9.73;;;5.95;;
70008;SDS011;59542;37.950;-122.338;2022-10-13T00:34:40;8.60;;;5.20;;
70008;SDS011;59542;37.950;-122.338;2022-10-13T00:37:06;13.05;;;5.40;;
70008;SDS011;59542;37.950;-122.338;2022-10-13T00:39:32;9.80;;;5.20;;
70008;SDS011;59542;37.950;-122.338;2022-10-13T00:41:59;10.90;;;5.10;;
70008;SDS011;59542;37.950;-122.338;2022-10-13T00:47:22;10.55;;;5.32;;
70008;SDS011;59542;37.950;-122.338;2022-10-13T00:49:51;10.00;;;5.35;;
70008;SDS011;59542;37.950;-122.338;2022-10-13T00:52:19;10.20;;;5.25;;
70008;SDS011;59542;37.950;-122.338;2022-10-13T00:54:48;12.68;;;6.30;;
70008;SDS011;59542;37.950;-122.338;2022-10-13T00:57:15;8.70;;;5.68;;
70008;SDS011;59542;37.950;-122.338;2022-10-13T00:59:45;10.65;;;5.30;;
70008;SDS011;59542;37.950;-122.338;2022-10-13T01:02:12;6.53;;;4.90;;
70008;SDS011;59542;37.950;-122.338;2022-10-13T01:04:40;11.43;;;5.82;;
70008;SDS011;59542;37.950;-122.338;2022-10-13T01:07:09;8.95;;;5.13;;
70008;SDS011;59542;37.950;-122.338;2022-10-13T01:09:38;13.63;;;5.40;;
70008;SDS011;59542;37.950;-122.338;2022-10-13T01:25:15;20.25;;;6.82;;
70008;SDS011;59542;37.950;-122.338;2022-10-13T01:30:44;12.13;;;6.05;;
70008;SDS011;59542;37.950;-122.338;2022-10-13T01:36:10;9.38;;;5.15;;
70008;SDS011;59542;37.950;-122.338;2022-10-13T01:41:44;13.02;;;6.53;;
70008;SDS011;59542;37.950;-122.338;2022-10-13T01:46:54;11.70;;;5.95;;
70008;SDS011;59542;37.950;-122.338;2022-10-13T01:49:23;12.80;;;6.55;;
70008;SDS011;59542;37.950;-122.338;2022-10-13T01:51:54;7.70;;;5.53;;
70008;SDS011;59542;37.950;-122.338;2022-10-13T01:54:24;12.48;;;6.38;;
70008;SDS011;59542;37.950;-122.338;2022-10-13T01:56:54;11.05;;;6.00;;
70008;SDS011;59542;37.950;-122.338;2022-10-13T01:59:21;11.02;;;5.63;;
70008;SDS011;59542;37.950;-122.338;2022-10-13T02:12:38;10.20;;;6.43;;
70008;SDS011;59542;37.950;-122.338;2022-10-13T02:15:22;12.15;;;6.57;;
70008;SDS011;59542;37.950;-122.338;2022-10-13T02:17:53;8.70;;;6.07;;
70008;SDS011;59542;37.950;-122.338;2022-10-13T02:20:20;12.35;;;6.45;;
70008;SDS011;59542;37.950;-122.338;2022-10-13T02:22:47;8.45;;;5.90;;
70008;SDS011;59542;37.950;-122.338;2022-10-13T02:25:20;11.30;;;6.45;;
70008;SDS011;59542;37.950;-122.338;2022-10-13T02:27:46;13.95;;;6.80;;
70008;SDS011;59542;37.950;-122.338;2022-10-13T02:30:23;9.18;;;6.45;;
70008;SDS011;59542;37.950;-122.338;2022-10-13T02:32:52;13.20;;;7.32;;
70008;SDS011;59542;37.950;-122.338;2022-10-13T02:35:19;10.02;;;7.13;;
70008;SDS011;59542;37.950;-122.338;2022-10-13T02:37:46;11.70;;;6.95;;
70008;SDS011;59542;37.950;-122.338;2022-10-13T02:40:12;12.07;;;7.35;;
70008;SDS011;59542;37.950;-122.338;2022-10-13T02:42:38;11.60;;;6.28;;
70008;SDS011;59542;37.950;-122.338;2022-10-13T02:45:05;9.57;;;6.40;;
70008;SDS011;59542;37.950;-122.338;2022-10-13T02:47:31;10.43;;;6.47;;
70008;SDS011;59542;37.950;-122.338;2022-10-13T02:49:58;12.27;;;7.25;;
70008;SDS011;59542;37.950;-122.338;2022-10-13T02:52:24;8.48;;;6.80;;
70008;SDS011;59542;37.950;-122.338;2022-10-13T02:54:50;11.13;;;6.70;;
70008;SDS011;59542;37.950;-122.338;2022-10-13T02:57:17;11.05;;;6.78;;
70008;SDS011;59542;37.950;-122.338;2022-10-13T02:59:43;13.88;;;7.65;;
70008;SDS011;59542;37.950;-122.338;2022-10-13T03:02:10;12.65;;;6.82;;
70008;SDS011;59542;37.950;-122.338;2022-10-13T03:04:36;13.48;;;7.50;;
70008;SDS011;59542;37.950;-122.338;2022-10-13T03:07:02;11.00;;;6.45;;
70008;SDS011;59542;37.950;-122.338;2022-10-13T03:09:28;12.35;;;7.25;;
70008;SDS011;59542;37.950;-122.338;2022-10-13T03:11:54;10.30;;;6.38;;
70008;SDS011;59542;37.950;-122.338;2022-10-13T03:14:21;11.23;;;6.45;;
70008;SDS011;59542;37.950;-122.338;2022-10-13T03:16:47;13.45;;;6.65;;
70008;SDS011;59542;37.950;-122.338;2022-10-13T03:19:13;12.70;;;7.35;;
70008;SDS011;59542;37.950;-122.338;2022-10-13T03:21:39;12.07;;;7.13;;
70008;SDS011;59542;37.950;-122.338;2022-10-13T03:24:05;13.07;;;7.43;;
70008;SDS011;59542;37.950;-122.338;2022-10-13T03:26:32;13.85;;;6.95;;
70008;SDS011;59542;37.950;-122.338;2022-10-13T03:28:59;9.77;;;7.07;;
70008;SDS011;59542;37.950;-122.338;2022-10-13T03:31:25;8.02;;;6.07;;
70008;SDS011;59542;37.950;-122.338;2022-10-13T03:33:52;9.68;;;6.82;;
70008;SDS011;59542;37.950;-122.338;2022-10-13T03:36:18;15.77;;;7.05;;
70008;SDS011;59542;37.950;-122.338;2022-10-13T03:38:44;10.65;;;7.00;;
70008;SDS011;59542;37.950;-122.338;2022-10-13T03:41:12;12.70;;;7.10;;
70008;SDS011;59542;37.950;-122.338;2022-10-13T03:43:40;12.48;;;7.20;;
70008;SDS011;59542;37.950;-122.338;2022-10-13T03:46:08;11.48;;;7.35;;
70008;SDS011;59542;37.950;-122.338;2022-10-13T03:48:38;11.15;;;7.15;;
70008;SDS011;59542;37.950;-122.338;2022-10-13T03:51:08;11.50;;;7.05;;
70008;SDS011;59542;37.950;-122.338;2022-10-13T03:53:36;12.20;;;7.05;;
70008;SDS011;59542;37.950;-122.338;2022-10-13T03:56:03;11.90;;;6.93;;
70008;SDS011;59542;37.950;-122.338;2022-10-13T03:58:30;10.80;;;6.65;;
70008;SDS011;59542;37.950;-122.338;2022-10-13T04:01:00;11.55;;;6.97;;
70008;SDS011;59542;37.950;-122.338;2022-10-13T04:03:27;13.15;;;6.97;;
70008;SDS011;59542;37.950;-122.338;2022-10-13T04:05:54;12.98;;;7.45;;
70008;SDS011;59542;37.950;-122.338;2022-10-13T04:08:20;12.80;;;6.93;;
70008;SDS011;59542;37.950;-122.338;2022-10-13T04:10:46;13.23;;;7.65;;
70008;SDS011;59542;37.950;-122.338;2022-10-13T04:13:12;9.85;;;6.60;;
70008;SDS011;59542;37.950;-122.338;2022-10-13T04:15:39;12.27;;;6.40;;
70008;SDS011;59542;37.950;-122.338;2022-10-13T04:18:06;13.07;;;7.07;;
70008;SDS011;59542;37.950;-122.338;2022-10-13T04:20:38;10.48;;;6.85;;
70008;SDS011;59542;37.950;-122.338;2022-10-13T04:23:05;13.25;;;6.88;;
70008;SDS011;59542;37.950;-122.338;2022-10-13T04:25:35;15.63;;;7.30;;
70008;SDS011;59542;37.950;-122.338;2022-10-13T04:28:03;11.75;;;6.90;;
70008;SDS011;59542;37.950;-122.338;2022-10-13T04:30:33;10.00;;;6.82;;
70008;SDS011;59542;37.950;-122.338;2022-10-13T04:33:00;12.23;;;6.72;;
70008;SDS011;59542;37.950;-122.338;2022-10-13T04:35:26;11.60;;;7.32;;
70008;SDS011;59542;37.950;-122.338;2022-10-13T04:37:52;10.27;;;6.57;;
70008;SDS011;59542;37.950;-122.338;2022-10-13T04:40:19;12.32;;;6.55;;
70008;SDS011;59542;37.950;-122.338;2022-10-13T04:42:45;10.00;;;6.53;;
70008;SDS011;59542;37.950;-122.338;2022-10-13T04:45:11;14.98;;;6.80;;
70008;SDS011;59542;37.950;-122.338;2022-10-13T04:47:37;12.77;;;6.55;;
70008;SDS011;59542;37.950;-122.338;2022-10-13T04:50:04;11.57;;;6.82;;
70008;SDS011;59542;37.950;-122.338;2022-10-13T04:52:30;11.40;;;6.50;;
70008;SDS011;59542;37.950;-122.338;2022-10-13T04:54:58;12.80;;;6.60;;
70008;SDS011;59542;37.950;-122.338;2022-10-13T04:57:24;11.77;;;6.20;;
70008;SDS011;59542;37.950;-122.338;2022-10-13T04:59:50;12.90;;;6.35;;
70008;SDS011;59542;37.950;-122.338;2022-10-13T05:02:17;10.60;;;6.75;;
70008;SDS011;59542;37.950;-122.338;2022-10-13T05:04:43;11.52;;;7.07;;
70008;SDS011;59542;37.950;-122.338;2022-10-13T05:07:09;11.60;;;6.38;;
70008;SDS011;59542;37.950;-122.338;2022-10-13T05:09:35;10.88;;;6.47;;
70008;SDS011;59542;37.950;-122.338;2022-10-13T05:12:02;11.85;;;6.80;;
70008;SDS011;59542;37.950;-122.338;2022-10-13T05:14:28;11.40;;;6.70;;
70008;SDS011;59542;37.950;-122.338;2022-10-13T05:16:55;9.27;;;6.68;;
70008;SDS011;59542;37.950;-122.338;2022-10-13T05:19:21;11.55;;;6.75;;
70008;SDS011;59542;37.950;-122.338;2022-10-13T05:21:48;11.90;;;6.68;;
70008;SDS011;59542;37.950;-122.338;2022-10-13T05:24:14;15.02;;;7.30;;
70008;SDS011;59542;37.950;-122.338;2022-10-13T05:26:41;13.15;;;7.20;;
70008;SDS011;59542;37.950;-122.338;2022-10-13T05:29:07;14.70;;;6.80;;
70008;SDS011;59542;37.950;-122.338;2022-10-13T05:31:34;11.77;;;7.63;;
70008;SDS011;59542;37.950;-122.338;2022-10-13T05:34:00;11.18;;;7.53;;
70008;SDS011;59542;37.950;-122.338;2022-10-13T05:36:28;16.83;;;8.40;;
70008;SDS011;59542;37.950;-122.338;2022-10-13T05:38:56;14.00;;;8.30;;
70008;SDS011;59542;37.950;-122.338;2022-10-13T05:41:24;11.23;;;7.90;;
70008;SDS011;59542;37.950;-122.338;2022-10-13T05:43:52;13.60;;;7.72;;
70008;SDS011;59542;37.950;-122.338;2022-10-13T05:46:21;16.85;;;8.20;;
70008;SDS011;59542;37.950;-122.338;2022-10-13T05:48:48;12.52;;;6.95;;
70008;SDS011;59542;37.950;-122.338;2022-10-13T05:51:15;13.57;;;7.57;;
70008;SDS011;59542;37.950;-122.338;2022-10-13T05:53:46;15.30;;;7.95;;
70008;SDS011;59542;37.950;-122.338;2022-10-13T05:56:17;16.08;;;8.20;;
70008;SDS011;59542;37.950;-122.338;2022-10-13T05:58:52;11.25;;;7.35;;
70008;SDS011;59542;37.950;-122.338;2022-10-13T06:01:24;9.45;;;6.80;;
70008;SDS011;59542;37.950;-122.338;2022-10-13T06:03:57;14.20;;;7.63;;
70008;SDS011;59542;37.950;-122.338;2022-10-13T06:06:27;10.30;;;6.80;;
70008;SDS011;59542;37.950;-122.338;2022-10-13T06:08:53;11.25;;;6.95;;
70008;SDS011;59542;37.950;-122.338;2022-10-13T06:11:19;9.73;;;6.60;;
70008;SDS011;59542;37.950;-122.338;2022-10-13T06:13:45;10.73;;;7.15;;
70008;SDS011;59542;37.950;-122.338;2022-10-13T06:16:12;10.82;;;6.82;;
70008;SDS011;59542;37.950;-122.338;2022-10-13T06:18:38;10.02;;;6.97;;
70008;SDS011;59542;37.950;-122.338;2022-10-13T06:21:04;9.50;;;7.38;;
70008;SDS011;59542;37.950;-122.338;2022-10-13T06:23:30;12.77;;;7.05;;
70008;SDS011;59542;37.950;-122.338;2022-10-13T06:25:56;10.75;;;6.47;;
70008;SDS011;59542;37.950;-122.338;2022-10-13T06:28:23;9.23;;;6.40;;
70008;SDS011;59542;37.950;-122.338;2022-10-13T06:30:49;8.85;;;6.20;;
70008;SDS011;59542;37.950;-122.338;2022-10-13T06:33:20;8.90;;;6.82;;
70008;SDS011;59542;37.950;-122.338;2022-10-13T06:35:49;11.07;;;6.90;;
70008;SDS011;59542;37.950;-122.338;2022-10-13T06:38:15;9.10;;;6.97;;
70008;SDS011;59542;37.950;-122.338;2022-10-13T06:40:42;14.07;;;7.63;;
70008;SDS011;59542;37.950;-122.338;2022-10-13T06:43:08;12.50;;;6.78;;
70008;SDS011;59542;37.950;-122.338;2022-10-13T06:45:34;10.73;;;6.68;;
70008;SDS011;59542;37.950;-122.338;2022-10-13T06:48:01;8.38;;;6.07;;
70008;SDS011;59542;37.950;-122.338;2022-10-13T06:50:27;7.18;;;5.35;;
70008;SDS011;59542;37.950;-122.338;2022-10-13T06:52:54;7.03;;;5.45;;
70008;SDS011;59542;37.950;-122.338;2022-10-13T06:55:21;9.65;;;5.05;;
70008;SDS011;59542;37.950;-122.338;2022-10-13T06:57:47;6.50;;;4.50;;
70008;SDS011;59542;37.950;-122.338;2022-10-13T07:00:13;6.47;;;4.22;;
70008;SDS011;59542;37.950;-122.338;2022-10-13T07:02:40;5.95;;;4.25;;
70008;SDS011;59542;37.950;-122.338;2022-10-13T07:05:06;6.28;;;4.25;;
70008;SDS011;59542;37.950;-122.338;2022-10-13T07:07:32;6.50;;;4.10;;
70008;SDS011;59542;37.950;-122.338;2022-10-13T07:09:58;6.50;;;4.22;;
70008;SDS011;59542;37.950;-122.338;2022-10-13T07:12:25;7.03;;;4.10;;
70008;SDS011;59542;37.950;-122.338;2022-10-13T07:14:51;5.15;;;4.13;;
70008;SDS011;59542;37.950;-122.338;2022-10-13T07:17:17;6.45;;;3.90;;
70008;SDS011;59542;37.950;-122.338;2022-10-13T07:19:43;6.38;;;4.07;;
70008;SDS011;59542;37.950;-122.338;2022-10-13T07:22:12;5.13;;;3.65;;
70008;SDS011;59542;37.950;-122.338;2022-10-13T07:24:39;6.13;;;3.88;;
70008;SDS011;59542;37.950;-122.338;2022-10-13T07:27:05;9.85;;;3.97;;
70008;SDS011;59542;37.950;-122.338;2022-10-13T07:29:31;8.77;;;4.28;;
70008;SDS011;59542;37.950;-122.338;2022-10-13T07:31:58;5.38;;;3.83;;
70008;SDS011;59542;37.950;-122.338;2022-10-13T07:34:24;5.05;;;3.92;;
70008;SDS011;59542;37.950;-122.338;2022-10-13T07:36:50;5.63;;;3.65;;
70008;SDS011;59542;37.950;-122.338;2022-10-13T07:39:16;3.33;;;2.80;;
70008;SDS011;59542;37.950;-122.338;2022-10-13T07:41:42;4.35;;;3.33;;
70008;SDS011;59542;37.950;-122.338;2022-10-13T07:44:08;7.93;;;3.58;;
70008;SDS011;59542;37.950;-122.338;2022-10-13T07:46:35;5.63;;;2.75;;
70008;SDS011;59542;37.950;-122.338;2022-10-13T07:49:01;2.80;;;2.25;;
70008;SDS011;59542;37.950;-122.338;2022-10-13T07:51:27;2.95;;;2.40;;
70008;SDS011;59542;37.950;-122.338;2022-10-13T07:53:53;3.42;;;2.15;;
70008;SDS011;59542;37.950;-122.338;2022-10-13T07:56:19;2.70;;;1.98;;
70008;SDS011;59542;37.950;-122.338;2022-10-13T07:58:46;3.60;;;1.90;;
70008;SDS011;59542;37.950;-122.338;2022-10-13T08:01:13;2.88;;;1.83;;
70008;SDS011;59542;37.950;-122.338;2022-10-13T08:03:40;3.20;;;1.92;;
70008;SDS011;59542;37.950;-122.338;2022-10-13T08:06:08;3.05;;;2.17;;
70008;SDS011;59542;37.950;-122.338;2022-10-13T08:08:34;2.85;;;2.05;;
70008;SDS011;59542;37.950;-122.338;2022-10-13T08:11:05;3.92;;;2.00;;
70008;SDS011;59542;37.950;-122.338;2022-10-13T08:13:32;2.70;;;1.98;;
70008;SDS011;59542;37.950;-122.338;2022-10-13T08:15:59;3.03;;;1.83;;
70008;SDS011;59542;37.950;-122.338;2022-10-13T08:18:26;2.33;;;1.55;;
70008;SDS011;59542;37.950;-122.338;2022-10-13T08:20:53;3.13;;;1.70;;
70008;SDS011;59542;37.950;-122.338;2022-10-13T08:23:19;2.47;;;1.52;;
70008;SDS011;59542;37.950;-122.338;2022-10-13T08:25:45;2.03;;;1.20;;
70008;SDS011;59542;37.950;-122.338;2022-10-13T08:28:16;2.55;;;1.30;;
70008;SDS011;59542;37.950;-122.338;2022-10-13T08:30:48;2.65;;;1.42;;
70008;SDS011;59542;37.950;-122.338;2022-10-13T08:33:18;2.90;;;1.80;;
70008;SDS011;59542;37.950;-122.338;2022-10-13T08:35:44;2.42;;;1.55;;
70008;SDS011;59542;37.950;-122.338;2022-10-13T08:38:11;2.17;;;1.50;;
70008;SDS011;59542;37.950;-122.338;2022-10-13T08:40:37;1.65;;;1.35;;
70008;SDS011;59542;37.950;-122.338;2022-10-13T08:43:07;2.85;;;1.27;;
70008;SDS011;59542;37.950;-122.338;2022-10-13T08:45:37;1.77;;;1.30;;
70008;SDS011;59542;37.950;-122.338;2022-10-13T08:48:07;2.17;;;1.60;;
70008;SDS011;59542;37.950;-122.338;2022-10-13T08:50:43;3.67;;;1.65;;
70008;SDS011;59542;37.950;-122.338;2022-10-13T08:55:55;1.65;;;1.30;;
70008;SDS011;59542;37.950;-122.338;2022-10-13T08:58:28;2.17;;;1.50;;
70008;SDS011;59542;37.950;-122.338;2022-10-13T09:01:12;2.38;;;1.50;;
70008;SDS011;59542;37.950;-122.338;2022-10-13T09:06:16;2.25;;;1.20;;
70008;SDS011;59542;37.950;-122.338;2022-10-13T09:11:31;2.90;;;1.40;;
70008;SDS011;59542;37.950;-122.338;2022-10-13T09:14:06;2.45;;;1.58;;
70008;SDS011;59542;37.950;-122.338;2022-10-13T09:16:46;1.95;;;1.27;;
70008;SDS011;59542;37.950;-122.338;2022-10-13T09:21:42;1.15;;;1.08;;
70008;SDS011;59542;37.950;-122.338;2022-10-13T09:24:12;2.63;;;1.17;;
70008;SDS011;59542;37.950;-122.338;2022-10-13T09:26:41;1.63;;;1.02;;
70008;SDS011;59542;37.950;-122.338;2022-10-13T09:29:10;2.05;;;1.23;;
70008;SDS011;59542;37.950;-122.338;2022-10-13T09:31:49;2.10;;;1.08;;
70008;SDS011;59542;37.950;-122.338;2022-10-13T09:36:54;1.42;;;0.98;;
70008;SDS011;59542;37.950;-122.338;2022-10-13T09:39:21;0.73;;;0.73;;
70008;SDS011;59542;37.950;-122.338;2022-10-13T09:41:47;1.73;;;1.05;;
70008;SDS011;59542;37.950;-122.338;2022-10-13T09:44:17;0.60;;;0.60;;
70008;SDS011;59542;37.950;-122.338;2022-10-13T09:47:01;1.20;;;0.88;;
70008;SDS011;59542;37.950;-122.338;2022-10-13T09:52:03;0.80;;;0.60;;
70008;SDS011;59542;37.950;-122.338;2022-10-13T09:57:27;0.82;;;0.80;;
70008;SDS011;59542;37.950;-122.338;2022-10-13T10:02:44;0.95;;;0.60;;
70008;SDS011;59542;37.950;-122.338;2022-10-13T10:05:24;0.98;;;0.52;;
70008;SDS011;59542;37.950;-122.338;2022-10-13T10:11:12;0.88;;;0.50;;
70008;SDS011;59542;37.950;-122.338;2022-10-13T10:13:42;0.70;;;0.70;;
70008;SDS011;59542;37.950;-122.338;2022-10-13T10:16:13;1.15;;;1.00;;
70008;SDS011;59542;37.950;-122.338;2022-10-13T10:18:57;1.45;;;1.00;;
70008;SDS011;59542;37.950;-122.338;2022-10-13T10:25:02;1.50;;;0.80;;
70008;SDS011;59542;37.950;-122.338;2022-10-13T10:27:30;1.50;;;0.90;;
70008;SDS011;59542;37.950;-122.338;2022-10-13T10:30:15;0.60;;;0.60;;
70008;SDS011;59542;37.950;-122.338;2022-10-13T10:35:37;1.67;;;0.95;;
70008;SDS011;59542;37.950;-122.338;2022-10-13T10:38:28;0.57;;;0.50;;
70008;SDS011;59542;37.950;-122.338;2022-10-13T10:44:36;0.90;;;0.70;;
70008;SDS011;59542;37.950;-122.338;2022-10-13T10:47:12;1.90;;;0.60;;
70008;SDS011;59542;37.950;-122.338;2022-10-13T10:49:42;5.15;;;1.00;;
70008;SDS011;59542;37.950;-122.338;2022-10-13T10:52:10;0.70;;;0.65;;
70008;SDS011;59542;37.950;-122.338;2022-10-13T11:03:40;1.80;;;0.60;;
70008;SDS011;59542;37.950;-122.338;2022-10-13T11:08:41;0.82;;;0.40;;
70008;SDS011;59542;37.950;-122.338;2022-10-13T11:16:27;0.30;;;0.30;;
70008;SDS011;59542;37.950;-122.338;2022-10-13T11:18:57;0.35;;;0.30;;
70008;SDS011;59542;37.950;-122.338;2022-10-13T11:25:33;0.75;;;0.40;;
70008;SDS011;59542;37.950;-122.338;2022-10-13T11:40:24;0.30;;;0.30;;
70008;SDS011;59542;37.950;-122.338;2022-10-13T11:45:36;0.30;;;0.30;;
70008;SDS011;59542;37.950;-122.338;2022-10-13T11:48:23;0.68;;;0.30;;
70008;SDS011;59542;37.950;-122.338;2022-10-13T11:50:59;0.40;;;0.40;;
70008;SDS011;59542;37.950;-122.338;2022-10-13T11:56:47;0.55;;;0.35;;
70008;SDS011;59542;37.950;-122.338;2022-10-13T11:59:29;0.55;;;0.50;;
70008;SDS011;59542;37.950;-122.338;2022-10-13T12:02:10;0.57;;;0.40;;
70008;SDS011;59542;37.950;-122.338;2022-10-13T12:04:38;0.50;;;0.22;;
70008;SDS011;59542;37.950;-122.338;2022-10-13T12:07:06;0.25;;;0.20;;
70008;SDS011;59542;37.950;-122.338;2022-10-13T12:09:51;0.57;;;0.50;;
70008;SDS011;59542;37.950;-122.338;2022-10-13T12:12:21;0.43;;;0.40;;
70008;SDS011;59542;37.950;-122.338;2022-10-13T12:14:52;0.55;;;0.55;;
70008;SDS011;59542;37.950;-122.338;2022-10-13T12:17:30;1.27;;;0.50;;
70008;SDS011;59542;37.950;-122.338;2022-10-13T12:20:20;1.52;;;0.63;;
70008;SDS011;59542;37.950;-122.338;2022-10-13T12:22:49;0.88;;;0.55;;
70008;SDS011;59542;37.950;-122.338;2022-10-13T12:25:17;1.42;;;0.47;;
70008;SDS011;59542;37.950;-122.338;2022-10-13T12:27:55;0.70;;;0.60;;
70008;SDS011;59542;37.950;-122.338;2022-10-13T12:30:27;1.60;;;0.50;;
70008;SDS011;59542;37.950;-122.338;2022-10-13T12:33:02;1.17;;;0.90;;
70008;SDS011;59542;37.950;-122.338;2022-10-13T12:35:42;1.13;;;0.93;;
70008;SDS011;59542;37.950;-122.338;2022-10-13T12:38:12;3.47;;;1.00;;
70008;SDS011;59542;37.950;-122.338;2022-10-13T12:40:47;1.48;;;1.00;;
70008;SDS011;59542;37.950;-122.338;2022-10-13T12:43:16;3.17;;;1.10;;
70008;SDS011;59542;37.950;-122.338;2022-10-13T12:45:46;1.67;;;1.00;;
70008;SDS011;59542;37.950;-122.338;2022-10-13T12:48:29;1.15;;;0.80;;
70008;SDS011;59542;37.950;-122.338;2022-10-13T12:51:21;3.25;;;0.95;;
70008;SDS011;59542;37.950;-122.338;2022-10-13T12:53:51;1.40;;;0.77;;
70008;SDS011;59542;37.950;-122.338;2022-10-13T12:56:35;1.13;;;0.90;;
70008;SDS011;59542;37.950;-122.338;2022-10-13T12:59:12;1.67;;;0.77;;
70008;SDS011;59542;37.950;-122.338;2022-10-13T13:01:41;1.42;;;0.90;;
70008;SDS011;59542;37.950;-122.338;2022-10-13T13:06:56;2.08;;;1.05;;
70008;SDS011;59542;37.950;-122.338;2022-10-13T13:09:29;1.15;;;0.85;;
70008;SDS011;59542;37.950;-122.338;2022-10-13T13:12:18;1.13;;;0.82;;
70008;SDS011;59542;37.950;-122.338;2022-10-13T13:14:50;1.25;;;1.02;;
70008;SDS011;59542;37.950;-122.338;2022-10-13T13:19:53;1.33;;;0.85;;
70008;SDS011;59542;37.950;-122.338;2022-10-13T13:22:21;2.88;;;1.38;;
70008;SDS011;59542;37.950;-122.338;2022-10-13T13:24:49;1.73;;;1.15;;
70008;SDS011;59542;37.950;-122.338;2022-10-13T13:27:17;1.13;;;0.90;;
70008;SDS011;59542;37.950;-122.338;2022-10-13T13:29:47;2.45;;;1.00;;
70008;SDS011;59542;37.950;-122.338;2022-10-13T13:32:15;1.05;;;0.70;;
70008;SDS011;59542;37.950;-122.338;2022-10-13T13:34:42;2.15;;;0.68;;
70008;SDS011;59542;37.950;-122.338;2022-10-13T13:37:11;1.35;;;0.95;;
70008;SDS011;59542;37.950;-122.338;2022-10-13T13:39:41;1.75;;;0.95;;
70008;SDS011;59542;37.950;-122.338;2022-10-13T13:42:10;1.50;;;0.80;;
70008;SDS011;59542;37.950;-122.338;2022-10-13T13:44:38;2.20;;;1.33;;
70008;SDS011;59542;37.950;-122.338;2022-10-13T13:47:08;2.25;;;1.50;;
70008;SDS011;59542;37.950;-122.338;2022-10-13T13:49:41;2.78;;;1.02;;
70008;SDS011;59542;37.950;-122.338;2022-10-13T13:52:07;1.23;;;1.10;;
70008;SDS011;59542;37.950;-122.338;2022-10-13T13:54:33;1.42;;;1.30;;
70008;SDS011;59542;37.950;-122.338;2022-10-13T13:56:59;1.65;;;1.10;;
70008;SDS011;59542;37.950;-122.338;2022-10-13T13:59:26;1.55;;;1.08;;
70008;SDS011;59542;37.950;-122.338;2022-10-13T14:01:52;2.63;;;1.10;;
70008;SDS011;59542;37.950;-122.338;2022-10-13T14:04:18;0.95;;;0.85;;
70008;SDS011;59542;37.950;-122.338;2022-10-13T14:06:44;3.42;;;1.30;;
70008;SDS011;59542;37.950;-122.338;2022-10-13T14:09:10;1.80;;;0.98;;
70008;SDS011;59542;37.950;-122.338;2022-10-13T14:11:37;1.55;;;1.30;;
70008;SDS011;59542;37.950;-122.338;2022-10-13T14:14:03;2.90;;;1.60;;
70008;SDS011;59542;37.950;-122.338;2022-10-13T14:16:29;3.75;;;1.55;;
70008;SDS011;59542;37.950;-122.338;2022-10-13T14:18:55;2.33;;;1.30;;
70008;SDS011;59542;37.950;-122.338;2022-10-13T14:21:22;1.90;;;1.30;;
70008;SDS011;59542;37.950;-122.338;2022-10-13T14:23:48;1.90;;;1.33;;
70008;SDS011;59542;37.950;-122.338;2022-10-13T14:26:14;3.30;;;2.50;;
70008;SDS011;59542;37.950;-122.338;2022-10-13T14:28:41;3.92;;;2.55;;
70008;SDS011;59542;37.950;-122.338;2022-10-13T14:31:09;3.38;;;2.25;;
70008;SDS011;59542;37.950;-122.338;2022-10-13T14:33:36;4.25;;;2.60;;
70008;SDS011;59542;37.950;-122.338;2022-10-13T14:36:03;2.35;;;1.90;;
70008;SDS011;59542;37.950;-122.338;2022-10-13T14:38:34;4.80;;;1.70;;
70008;SDS011;59542;37.950;-122.338;2022-10-13T14:41:01;2.03;;;1.63;;
70008;SDS011;59542;37.950;-122.338;2022-10-13T14:43:29;2.88;;;1.50;;
70008;SDS011;59542;37.950;-122.338;2022-10-13T14:45:59;2.40;;;1.38;;
70008;SDS011;59542;37.950;-122.338;2022-10-13T14:48:28;3.85;;;1.38;;
70008;SDS011;59542;37.950;-122.338;2022-10-13T14:50:56;2.47;;;1.60;;
70008;SDS011;59542;37.950;-122.338;2022-10-13T14:53:22;2.60;;;1.67;;
70008;SDS011;59542;37.950;-122.338;2022-10-13T14:55:51;1.50;;;1.30;;
70008;SDS011;59542;37.950;-122.338;2022-10-13T14:58:17;1.50;;;1.25;;
70008;SDS011;59542;37.950;-122.338;2022-10-13T15:00:43;2.45;;;1.70;;
70008;SDS011;59542;37.950;-122.338;2022-10-13T15:03:09;3.13;;;1.77;;
70008;SDS011;59542;37.950;-122.338;2022-10-13T15:05:36;3.35;;;1.48;;
70008;SDS011;59542;37.950;-122.338;2022-10-13T15:08:02;2.72;;;1.67;;
70008;SDS011;59542;37.950;-122.338;2022-10-13T15:10:29;2.58;;;1.20;;
70008;SDS011;59542;37.950;-122.338;2022-10-13T15:12:55;2.78;;;1.52;;
70008;SDS011;59542;37.950;-122.338;2022-10-13T15:15:21;2.90;;;1.60;;
70008;SDS011;59542;37.950;-122.338;2022-10-13T15:17:48;3.13;;;1.60;;
70008;SDS011;59542;37.950;-122.338;2022-10-13T15:20:16;2.35;;;1.60;;
70008;SDS011;59542;37.950;-122.338;2022-10-13T15:22:43;4.05;;;2.08;;
70008;SDS011;59542;37.950;-122.338;2022-10-13T15:25:09;3.33;;;2.40;;
70008;SDS011;59542;37.950;-122.338;2022-10-13T15:27:36;3.60;;;2.20;;
70008;SDS011;59542;37.950;-122.338;2022-10-13T15:30:04;1.23;;;1.13;;
70008;SDS011;59542;37.950;-122.338;2022-10-13T15:32:31;1.08;;;0.80;;
70008;SDS011;59542;37.950;-122.338;2022-10-13T15:34:58;1.67;;;0.90;;
70008;SDS011;59542;37.950;-122.338;2022-10-13T15:37:24;1.17;;;0.88;;
70008;SDS011;59542;37.950;-122.338;2022-10-13T15:39:50;2.30;;;1.40;;
70008;SDS011;59542;37.950;-122.338;2022-10-13T15:42:17;2.80;;;2.10;;
70008;SDS011;59542;37.950;-122.338;2022-10-13T15:44:43;3.58;;;1.77;;
70008;SDS011;59542;37.950;-122.338;2022-10-13T15:47:09;2.75;;;1.30;;
70008;SDS011;59542;37.950;-122.338;2022-10-13T15:49:35;2.72;;;1.30;;
70008;SDS011;59542;37.950;-122.338;2022-10-13T15:52:02;1.52;;;0.93;;
70008;SDS011;59542;37.950;-122.338;2022-10-13T15:54:28;10.35;;;1.48;;
70008;SDS011;59542;37.950;-122.338;2022-10-13T15:56:54;12.48;;;1.92;;
70008;SDS011;59542;37.950;-122.338;2022-10-13T15:59:21;1.23;;;0.90;;
70008;SDS011;59542;37.950;-122.338;2022-10-13T16:01:47;1.73;;;0.82;;
70008;SDS011;59542;37.950;-122.338;2022-10-13T16:04:13;1.73;;;1.40;;
70008;SDS011;59542;37.950;-122.338;2022-10-13T16:06:40;1.83;;;1.30;;
70008;SDS011;59542;37.950;-122.338;2022-10-13T16:09:06;1.50;;;1.23;;